sensor_id;sensor_type;location;lat;lon;timestamp;P1;durP1;ratioP1;P2;durP2;ratioP2
803;SDS011;25687;49.976;8.240;2022-11-20T00:01:49;28.70;;;22.23;;
803;SDS011;25687;49.976;8.240;2022-11-20T00:04:14;29.10;;;21.33;;
803;SDS011;25687;49.976;8.240;2022-11-20T00:06:39;30.53;;;22.83;;
803;SDS011;25687;49.976;8.240;2022-11-20T00:09:05;29.90;;;23.57;;
803;SDS011;25687;49.976;8.240;2022-11-20T00:11:32;27.77;;;23.00;;
803;SDS011;25687;49.976;8.240;2022-11-20T00:13:58;28.57;;;23.03;;
803;SDS011;25687;49.976;8.240;2022-11-20T00:16:25;28.97;;;22.33;;
803;SDS011;25687;49.976;8.240;2022-11-20T00:18:53;31.33;;;22.20;;
803;SDS011;25687;49.976;8.240;2022-11-20T00:23:48;31.10;;;23.43;;
803;SDS011;25687;49.976;8.240;2022-11-20T00:26:16;29.90;;;22.97;;
803;SDS011;25687;49.976;8.240;2022-11-20T00:28:43;30.10;;;21.70;;
803;SDS011;25687;49.976;8.240;2022-11-20T00:31:14;29.73;;;23.13;;
803;SDS011;25687;49.976;8.240;2022-11-20T00:33:41;31.70;;;23.77;;
803;SDS011;25687;49.976;8.240;2022-11-20T00:36:12;31.43;;;24.03;;
803;SDS011;25687;49.976;8.240;2022-11-20T00:38:40;32.10;;;23.57;;
803;SDS011;25687;49.976;8.240;2022-11-20T00:41:08;31.03;;;22.27;;
803;SDS011;25687;49.976;8.240;2022-11-20T00:43:34;31.40;;;23.10;;
803;SDS011;25687;49.976;8.240;2022-11-20T00:46:02;30.13;;;22.60;;
803;SDS011;25687;49.976;8.240;2022-11-20T00:48:29;31.07;;;23.73;;
803;SDS011;25687;49.976;8.240;2022-11-20T00:50:55;32.07;;;23.43;;
803;SDS011;25687;49.976;8.240;2022-11-20T00:53:21;33.13;;;23.33;;
803;SDS011;25687;49.976;8.240;2022-11-20T00:55:57;31.90;;;23.97;;
803;SDS011;25687;49.976;8.240;2022-11-20T00:58:30;30.33;;;22.73;;
803;SDS011;25687;49.976;8.240;2022-11-20T01:01:00;30.77;;;23.43;;
803;SDS011;25687;49.976;8.240;2022-11-20T01:03:27;35.70;;;24.07;;
803;SDS011;25687;49.976;8.240;2022-11-20T01:05:58;31.87;;;24.07;;
803;SDS011;25687;49.976;8.240;2022-11-20T01:08:25;33.80;;;24.10;;
803;SDS011;25687;49.976;8.240;2022-11-20T01:10:50;29.83;;;23.80;;
803;SDS011;25687;49.976;8.240;2022-11-20T01:13:15;34.33;;;24.87;;
803;SDS011;25687;49.976;8.240;2022-11-20T01:16:14;35.10;;;24.63;;
803;SDS011;25687;49.976;8.240;2022-11-20T01:18:40;29.77;;;24.03;;
803;SDS011;25687;49.976;8.240;2022-11-20T01:21:09;33.07;;;23.97;;
803;SDS011;25687;49.976;8.240;2022-11-20T01:23:37;29.53;;;22.97;;
803;SDS011;25687;49.976;8.240;2022-11-20T01:26:06;33.27;;;24.53;;
803;SDS011;25687;49.976;8.240;2022-11-20T01:28:33;31.60;;;25.50;;
803;SDS011;25687;49.976;8.240;2022-11-20T01:30:59;33.07;;;24.57;;
803;SDS011;25687;49.976;8.240;2022-11-20T01:33:26;31.60;;;23.03;;
803;SDS011;25687;49.976;8.240;2022-11-20T01:35:52;35.37;;;25.30;;
803;SDS011;25687;49.976;8.240;2022-11-20T01:38:19;36.53;;;24.77;;
803;SDS011;25687;49.976;8.240;2022-11-20T01:40:54;32.97;;;25.10;;
803;SDS011;25687;49.976;8.240;2022-11-20T01:43:20;36.97;;;24.50;;
803;SDS011;25687;49.976;8.240;2022-11-20T01:48:32;36.53;;;26.30;;
803;SDS011;25687;49.976;8.240;2022-11-20T01:51:10;33.93;;;24.37;;
803;SDS011;25687;49.976;8.240;2022-11-20T01:53:41;37.37;;;25.07;;
803;SDS011;25687;49.976;8.240;2022-11-20T01:56:08;35.53;;;25.70;;
803;SDS011;25687;49.976;8.240;2022-11-20T01:58:38;35.30;;;25.70;;
803;SDS011;25687;49.976;8.240;2022-11-20T02:01:12;36.97;;;26.83;;
803;SDS011;25687;49.976;8.240;2022-11-20T02:03:38;37.23;;;25.67;;
803;SDS011;25687;49.976;8.240;2022-11-20T02:09:05;36.43;;;26.37;;
803;SDS011;25687;49.976;8.240;2022-11-20T02:11:31;35.37;;;25.53;;
803;SDS011;25687;49.976;8.240;2022-11-20T02:13:56;36.83;;;24.97;;
803;SDS011;25687;49.976;8.240;2022-11-20T02:16:27;36.53;;;27.07;;
803;SDS011;25687;49.976;8.240;2022-11-20T02:18:59;33.07;;;25.37;;
803;SDS011;25687;49.976;8.240;2022-11-20T02:21:37;34.97;;;24.27;;
803;SDS011;25687;49.976;8.240;2022-11-20T02:24:09;38.07;;;26.23;;
803;SDS011;25687;49.976;8.240;2022-11-20T02:29:05;37.43;;;26.27;;
803;SDS011;25687;49.976;8.240;2022-11-20T02:31:35;39.67;;;25.27;;
803;SDS011;25687;49.976;8.240;2022-11-20T02:34:03;36.23;;;25.13;;
803;SDS011;25687;49.976;8.240;2022-11-20T02:36:29;36.67;;;25.97;;
803;SDS011;25687;49.976;8.240;2022-11-20T02:38:56;36.77;;;26.27;;
803;SDS011;25687;49.976;8.240;2022-11-20T02:41:22;37.93;;;27.53;;
803;SDS011;25687;49.976;8.240;2022-11-20T02:43:55;36.63;;;26.57;;
803;SDS011;25687;49.976;8.240;2022-11-20T02:46:21;35.73;;;26.07;;
803;SDS011;25687;49.976;8.240;2022-11-20T02:48:46;40.27;;;26.70;;
803;SDS011;25687;49.976;8.240;2022-11-20T02:51:11;37.97;;;25.10;;
803;SDS011;25687;49.976;8.240;2022-11-20T02:53:37;38.47;;;26.17;;
803;SDS011;25687;49.976;8.240;2022-11-20T02:56:02;39.57;;;26.73;;
803;SDS011;25687;49.976;8.240;2022-11-20T02:58:28;36.93;;;26.07;;
803;SDS011;25687;49.976;8.240;2022-11-20T03:00:53;33.90;;;24.53;;
803;SDS011;25687;49.976;8.240;2022-11-20T03:03:18;37.90;;;25.97;;
803;SDS011;25687;49.976;8.240;2022-11-20T03:05:44;34.77;;;25.60;;
803;SDS011;25687;49.976;8.240;2022-11-20T03:08:09;34.90;;;26.30;;
803;SDS011;25687;49.976;8.240;2022-11-20T03:10:34;38.03;;;26.50;;
803;SDS011;25687;49.976;8.240;2022-11-20T03:12:59;37.50;;;25.73;;
803;SDS011;25687;49.976;8.240;2022-11-20T03:15:25;36.30;;;25.57;;
803;SDS011;25687;49.976;8.240;2022-11-20T03:17:52;37.90;;;27.17;;
803;SDS011;25687;49.976;8.240;2022-11-20T03:20:19;33.80;;;26.03;;
803;SDS011;25687;49.976;8.240;2022-11-20T03:22:45;36.47;;;24.80;;
803;SDS011;25687;49.976;8.240;2022-11-20T03:25:10;34.80;;;25.80;;
803;SDS011;25687;49.976;8.240;2022-11-20T03:27:35;37.17;;;25.80;;
803;SDS011;25687;49.976;8.240;2022-11-20T03:30:00;33.57;;;24.27;;
803;SDS011;25687;49.976;8.240;2022-11-20T03:32:28;33.73;;;25.10;;
803;SDS011;25687;49.976;8.240;2022-11-20T03:34:53;34.30;;;25.60;;
803;SDS011;25687;49.976;8.240;2022-11-20T03:37:18;36.47;;;25.47;;
803;SDS011;25687;49.976;8.240;2022-11-20T03:39:44;34.43;;;25.57;;
803;SDS011;25687;49.976;8.240;2022-11-20T03:42:09;41.23;;;26.43;;
803;SDS011;25687;49.976;8.240;2022-11-20T03:44:54;36.10;;;25.93;;
803;SDS011;25687;49.976;8.240;2022-11-20T03:47:20;35.83;;;26.53;;
803;SDS011;25687;49.976;8.240;2022-11-20T03:49:45;35.83;;;26.27;;
803;SDS011;25687;49.976;8.240;2022-11-20T03:52:11;39.13;;;28.63;;
803;SDS011;25687;49.976;8.240;2022-11-20T03:54:36;38.33;;;25.37;;
803;SDS011;25687;49.976;8.240;2022-11-20T03:57:01;40.90;;;26.63;;
803;SDS011;25687;49.976;8.240;2022-11-20T03:59:27;39.23;;;27.13;;
803;SDS011;25687;49.976;8.240;2022-11-20T04:01:52;38.63;;;27.43;;
803;SDS011;25687;49.976;8.240;2022-11-20T04:04:17;36.87;;;26.73;;
803;SDS011;25687;49.976;8.240;2022-11-20T04:06:42;38.33;;;26.97;;
803;SDS011;25687;49.976;8.240;2022-11-20T04:09:08;37.23;;;25.53;;
803;SDS011;25687;49.976;8.240;2022-11-20T04:11:34;36.90;;;26.13;;
803;SDS011;25687;49.976;8.240;2022-11-20T04:14:02;37.97;;;25.67;;
803;SDS011;25687;49.976;8.240;2022-11-20T04:16:31;36.00;;;26.53;;
803;SDS011;25687;49.976;8.240;2022-11-20T04:18:59;40.10;;;26.43;;
803;SDS011;25687;49.976;8.240;2022-11-20T04:21:26;44.03;;;28.20;;
803;SDS011;25687;49.976;8.240;2022-11-20T04:23:52;38.20;;;27.40;;
803;SDS011;25687;49.976;8.240;2022-11-20T04:26:19;38.43;;;25.77;;
803;SDS011;25687;49.976;8.240;2022-11-20T04:28:45;39.67;;;27.10;;
803;SDS011;25687;49.976;8.240;2022-11-20T04:31:12;42.33;;;27.40;;
803;SDS011;25687;49.976;8.240;2022-11-20T04:33:42;42.70;;;28.20;;
803;SDS011;25687;49.976;8.240;2022-11-20T04:36:26;41.40;;;28.97;;
803;SDS011;25687;49.976;8.240;2022-11-20T04:38:53;40.57;;;26.93;;
803;SDS011;25687;49.976;8.240;2022-11-20T04:41:28;41.57;;;27.93;;
803;SDS011;25687;49.976;8.240;2022-11-20T04:43:56;41.57;;;28.07;;
803;SDS011;25687;49.976;8.240;2022-11-20T04:46:28;44.77;;;30.03;;
803;SDS011;25687;49.976;8.240;2022-11-20T04:48:55;40.90;;;27.37;;
803;SDS011;25687;49.976;8.240;2022-11-20T04:51:21;45.33;;;26.87;;
803;SDS011;25687;49.976;8.240;2022-11-20T04:53:46;43.07;;;28.37;;
803;SDS011;25687;49.976;8.240;2022-11-20T04:56:12;46.07;;;28.97;;
803;SDS011;25687;49.976;8.240;2022-11-20T04:58:38;49.53;;;28.57;;
803;SDS011;25687;49.976;8.240;2022-11-20T05:01:09;46.90;;;29.43;;
803;SDS011;25687;49.976;8.240;2022-11-20T05:03:45;42.70;;;27.70;;
803;SDS011;25687;49.976;8.240;2022-11-20T05:06:12;46.70;;;29.00;;
803;SDS011;25687;49.976;8.240;2022-11-20T05:08:39;44.77;;;28.53;;
803;SDS011;25687;49.976;8.240;2022-11-20T05:11:06;47.60;;;28.43;;
803;SDS011;25687;49.976;8.240;2022-11-20T05:13:33;44.40;;;27.93;;
803;SDS011;25687;49.976;8.240;2022-11-20T05:16:19;43.63;;;28.80;;
803;SDS011;25687;49.976;8.240;2022-11-20T05:18:48;40.97;;;28.90;;
803;SDS011;25687;49.976;8.240;2022-11-20T05:21:15;43.40;;;26.60;;
803;SDS011;25687;49.976;8.240;2022-11-20T05:23:42;39.63;;;26.37;;
803;SDS011;25687;49.976;8.240;2022-11-20T05:26:13;43.33;;;28.03;;
803;SDS011;25687;49.976;8.240;2022-11-20T05:28:39;42.73;;;26.70;;
803;SDS011;25687;49.976;8.240;2022-11-20T05:31:12;40.97;;;26.30;;
803;SDS011;25687;49.976;8.240;2022-11-20T05:33:39;44.50;;;28.17;;
803;SDS011;25687;49.976;8.240;2022-11-20T05:36:06;42.23;;;26.73;;
803;SDS011;25687;49.976;8.240;2022-11-20T05:38:31;36.43;;;25.03;;
803;SDS011;25687;49.976;8.240;2022-11-20T05:41:16;37.93;;;25.80;;
803;SDS011;25687;49.976;8.240;2022-11-20T05:43:43;39.30;;;25.43;;
803;SDS011;25687;49.976;8.240;2022-11-20T05:46:10;36.90;;;24.57;;
803;SDS011;25687;49.976;8.240;2022-11-20T05:48:37;42.23;;;25.83;;
803;SDS011;25687;49.976;8.240;2022-11-20T05:51:04;36.57;;;25.40;;
803;SDS011;25687;49.976;8.240;2022-11-20T05:53:32;33.30;;;23.47;;
803;SDS011;25687;49.976;8.240;2022-11-20T05:55:59;40.47;;;26.17;;
803;SDS011;25687;49.976;8.240;2022-11-20T05:58:29;39.17;;;24.93;;
803;SDS011;25687;49.976;8.240;2022-11-20T06:01:03;36.53;;;25.67;;
803;SDS011;25687;49.976;8.240;2022-11-20T06:03:37;37.77;;;25.90;;
803;SDS011;25687;49.976;8.240;2022-11-20T06:06:04;37.33;;;26.30;;
803;SDS011;25687;49.976;8.240;2022-11-20T06:08:30;36.77;;;25.37;;
803;SDS011;25687;49.976;8.240;2022-11-20T06:10:56;39.13;;;24.60;;
803;SDS011;25687;49.976;8.240;2022-11-20T06:13:22;35.07;;;25.90;;
803;SDS011;25687;49.976;8.240;2022-11-20T06:15:48;36.13;;;25.03;;
803;SDS011;25687;49.976;8.240;2022-11-20T06:18:17;37.47;;;25.20;;
803;SDS011;25687;49.976;8.240;2022-11-20T06:20:44;38.20;;;25.43;;
803;SDS011;25687;49.976;8.240;2022-11-20T06:23:10;32.63;;;23.67;;
803;SDS011;25687;49.976;8.240;2022-11-20T06:25:39;36.23;;;24.63;;
803;SDS011;25687;49.976;8.240;2022-11-20T06:28:06;36.20;;;23.83;;
803;SDS011;25687;49.976;8.240;2022-11-20T06:30:31;38.03;;;26.23;;
803;SDS011;25687;49.976;8.240;2022-11-20T06:32:57;35.37;;;25.03;;
803;SDS011;25687;49.976;8.240;2022-11-20T06:35:22;36.20;;;24.83;;
803;SDS011;25687;49.976;8.240;2022-11-20T06:37:47;33.47;;;24.07;;
803;SDS011;25687;49.976;8.240;2022-11-20T06:40:12;35.07;;;24.20;;
803;SDS011;25687;49.976;8.240;2022-11-20T06:42:38;34.73;;;23.47;;
803;SDS011;25687;49.976;8.240;2022-11-20T06:45:03;33.80;;;23.50;;
803;SDS011;25687;49.976;8.240;2022-11-20T06:47:29;35.17;;;24.27;;
803;SDS011;25687;49.976;8.240;2022-11-20T06:49:54;36.80;;;25.67;;
803;SDS011;25687;49.976;8.240;2022-11-20T06:52:20;37.47;;;24.17;;
803;SDS011;25687;49.976;8.240;2022-11-20T06:54:45;33.33;;;23.73;;
803;SDS011;25687;49.976;8.240;2022-11-20T06:57:10;37.27;;;25.10;;
803;SDS011;25687;49.976;8.240;2022-11-20T06:59:35;35.67;;;24.10;;
803;SDS011;25687;49.976;8.240;2022-11-20T07:02:01;33.80;;;24.87;;
803;SDS011;25687;49.976;8.240;2022-11-20T07:04:26;31.67;;;23.43;;
803;SDS011;25687;49.976;8.240;2022-11-20T07:06:51;37.13;;;24.17;;
803;SDS011;25687;49.976;8.240;2022-11-20T07:09:17;31.80;;;23.47;;
803;SDS011;25687;49.976;8.240;2022-11-20T07:11:42;36.83;;;25.53;;
803;SDS011;25687;49.976;8.240;2022-11-20T07:14:07;34.83;;;24.50;;
803;SDS011;25687;49.976;8.240;2022-11-20T07:16:32;38.30;;;25.40;;
803;SDS011;25687;49.976;8.240;2022-11-20T07:18:58;36.67;;;24.53;;
803;SDS011;25687;49.976;8.240;2022-11-20T07:21:23;35.50;;;24.90;;
803;SDS011;25687;49.976;8.240;2022-11-20T07:23:48;36.87;;;24.27;;
803;SDS011;25687;49.976;8.240;2022-11-20T07:26:14;34.40;;;24.33;;
803;SDS011;25687;49.976;8.240;2022-11-20T07:28:39;34.60;;;24.93;;
803;SDS011;25687;49.976;8.240;2022-11-20T07:31:05;38.07;;;25.03;;
803;SDS011;25687;49.976;8.240;2022-11-20T07:33:31;34.17;;;24.07;;
803;SDS011;25687;49.976;8.240;2022-11-20T07:36:00;33.13;;;24.57;;
803;SDS011;25687;49.976;8.240;2022-11-20T07:38:26;32.63;;;22.93;;
803;SDS011;25687;49.976;8.240;2022-11-20T07:40:55;34.77;;;23.57;;
803;SDS011;25687;49.976;8.240;2022-11-20T07:43:22;31.43;;;24.07;;
803;SDS011;25687;49.976;8.240;2022-11-20T07:45:48;33.17;;;23.37;;
803;SDS011;25687;49.976;8.240;2022-11-20T07:48:13;32.07;;;24.60;;
803;SDS011;25687;49.976;8.240;2022-11-20T07:50:38;30.53;;;23.10;;
803;SDS011;25687;49.976;8.240;2022-11-20T07:53:04;34.30;;;24.73;;
803;SDS011;25687;49.976;8.240;2022-11-20T07:55:30;33.30;;;22.80;;
803;SDS011;25687;49.976;8.240;2022-11-20T07:57:56;35.33;;;23.33;;
803;SDS011;25687;49.976;8.240;2022-11-20T08:00:22;36.43;;;24.03;;
803;SDS011;25687;49.976;8.240;2022-11-20T08:02:48;38.77;;;25.33;;
803;SDS011;25687;49.976;8.240;2022-11-20T08:05:13;39.17;;;25.50;;
803;SDS011;25687;49.976;8.240;2022-11-20T08:07:39;36.30;;;25.57;;
803;SDS011;25687;49.976;8.240;2022-11-20T08:10:06;33.90;;;24.10;;
803;SDS011;25687;49.976;8.240;2022-11-20T08:12:31;34.90;;;24.43;;
803;SDS011;25687;49.976;8.240;2022-11-20T08:15:16;34.10;;;23.83;;
803;SDS011;25687;49.976;8.240;2022-11-20T08:17:41;38.83;;;25.23;;
803;SDS011;25687;49.976;8.240;2022-11-20T08:20:06;35.97;;;24.13;;
803;SDS011;25687;49.976;8.240;2022-11-20T08:22:32;34.03;;;24.10;;
803;SDS011;25687;49.976;8.240;2022-11-20T08:24:57;34.50;;;25.27;;
803;SDS011;25687;49.976;8.240;2022-11-20T08:27:23;32.03;;;24.03;;
803;SDS011;25687;49.976;8.240;2022-11-20T08:29:48;36.27;;;24.33;;
803;SDS011;25687;49.976;8.240;2022-11-20T08:32:13;31.10;;;24.63;;
803;SDS011;25687;49.976;8.240;2022-11-20T08:34:39;36.07;;;24.40;;
803;SDS011;25687;49.976;8.240;2022-11-20T08:37:04;35.23;;;23.47;;
803;SDS011;25687;49.976;8.240;2022-11-20T08:39:29;35.13;;;24.80;;
803;SDS011;25687;49.976;8.240;2022-11-20T08:41:55;33.33;;;23.40;;
803;SDS011;25687;49.976;8.240;2022-11-20T08:44:20;30.67;;;23.80;;
803;SDS011;25687;49.976;8.240;2022-11-20T08:46:45;31.30;;;22.63;;
803;SDS011;25687;49.976;8.240;2022-11-20T08:49:12;31.83;;;22.27;;
803;SDS011;25687;49.976;8.240;2022-11-20T08:51:39;34.97;;;24.90;;
803;SDS011;25687;49.976;8.240;2022-11-20T08:54:04;32.63;;;24.23;;
803;SDS011;25687;49.976;8.240;2022-11-20T08:56:30;31.90;;;23.47;;
803;SDS011;25687;49.976;8.240;2022-11-20T08:58:56;35.37;;;24.23;;
803;SDS011;25687;49.976;8.240;2022-11-20T09:01:22;33.60;;;22.87;;
803;SDS011;25687;49.976;8.240;2022-11-20T09:03:48;34.63;;;24.17;;
803;SDS011;25687;49.976;8.240;2022-11-20T09:06:14;33.37;;;24.87;;
803;SDS011;25687;49.976;8.240;2022-11-20T09:08:40;32.63;;;23.87;;
803;SDS011;25687;49.976;8.240;2022-11-20T09:11:06;31.83;;;23.57;;
803;SDS011;25687;49.976;8.240;2022-11-20T09:13:32;28.87;;;22.23;;
803;SDS011;25687;49.976;8.240;2022-11-20T09:16:00;33.10;;;23.13;;
803;SDS011;25687;49.976;8.240;2022-11-20T09:18:30;32.00;;;24.53;;
803;SDS011;25687;49.976;8.240;2022-11-20T09:21:00;29.33;;;22.93;;
803;SDS011;25687;49.976;8.240;2022-11-20T09:23:27;31.03;;;23.23;;
803;SDS011;25687;49.976;8.240;2022-11-20T09:25:55;29.27;;;24.10;;
803;SDS011;25687;49.976;8.240;2022-11-20T09:28:24;31.23;;;23.03;;
803;SDS011;25687;49.976;8.240;2022-11-20T09:30:52;28.07;;;21.63;;
803;SDS011;25687;49.976;8.240;2022-11-20T09:33:18;28.00;;;22.53;;
803;SDS011;25687;49.976;8.240;2022-11-20T09:35:43;30.10;;;23.07;;
803;SDS011;25687;49.976;8.240;2022-11-20T09:38:09;31.00;;;22.77;;
803;SDS011;25687;49.976;8.240;2022-11-20T09:40:37;28.37;;;22.87;;
803;SDS011;25687;49.976;8.240;2022-11-20T09:46:05;26.43;;;21.30;;
803;SDS011;25687;49.976;8.240;2022-11-20T09:48:42;28.50;;;21.97;;
803;SDS011;25687;49.976;8.240;2022-11-20T09:56:37;33.13;;;24.10;;
803;SDS011;25687;49.976;8.240;2022-11-20T09:59:06;28.37;;;22.27;;
803;SDS011;25687;49.976;8.240;2022-11-20T10:01:41;28.47;;;22.50;;
803;SDS011;25687;49.976;8.240;2022-11-20T10:06:44;27.53;;;21.93;;
803;SDS011;25687;49.976;8.240;2022-11-20T10:09:28;30.67;;;23.00;;
803;SDS011;25687;49.976;8.240;2022-11-20T10:15:06;31.57;;;22.87;;
803;SDS011;25687;49.976;8.240;2022-11-20T10:18:00;31.00;;;23.20;;
803;SDS011;25687;49.976;8.240;2022-11-20T10:20:46;29.10;;;22.30;;
803;SDS011;25687;49.976;8.240;2022-11-20T10:29:09;27.33;;;20.67;;
803;SDS011;25687;49.976;8.240;2022-11-20T10:31:42;26.40;;;21.23;;
803;SDS011;25687;49.976;8.240;2022-11-20T10:34:31;27.93;;;22.07;;
803;SDS011;25687;49.976;8.240;2022-11-20T10:37:27;31.53;;;24.57;;
803;SDS011;25687;49.976;8.240;2022-11-20T10:40:00;25.63;;;20.97;;
803;SDS011;25687;49.976;8.240;2022-11-20T10:42:38;25.53;;;19.97;;
803;SDS011;25687;49.976;8.240;2022-11-20T10:45:15;26.47;;;20.63;;
803;SDS011;25687;49.976;8.240;2022-11-20T10:47:42;23.03;;;19.57;;
803;SDS011;25687;49.976;8.240;2022-11-20T10:50:11;24.50;;;20.00;;
803;SDS011;25687;49.976;8.240;2022-11-20T10:56:00;22.37;;;17.97;;
803;SDS011;25687;49.976;8.240;2022-11-20T11:01:20;28.07;;;20.77;;
803;SDS011;25687;49.976;8.240;2022-11-20T11:03:51;23.50;;;19.73;;
803;SDS011;25687;49.976;8.240;2022-11-20T11:09:32;23.37;;;19.43;;
803;SDS011;25687;49.976;8.240;2022-11-20T11:12:07;22.57;;;18.83;;
803;SDS011;25687;49.976;8.240;2022-11-20T11:14:53;21.43;;;17.37;;
803;SDS011;25687;49.976;8.240;2022-11-20T11:17:30;20.20;;;17.20;;
803;SDS011;25687;49.976;8.240;2022-11-20T11:20:00;20.37;;;16.63;;
803;SDS011;25687;49.976;8.240;2022-11-20T11:22:32;23.17;;;19.40;;
803;SDS011;25687;49.976;8.240;2022-11-20T11:25:00;22.60;;;18.40;;
803;SDS011;25687;49.976;8.240;2022-11-20T11:27:25;20.47;;;17.23;;
803;SDS011;25687;49.976;8.240;2022-11-20T11:30:00;20.03;;;17.80;;
803;SDS011;25687;49.976;8.240;2022-11-20T11:32:37;21.97;;;17.60;;
803;SDS011;25687;49.976;8.240;2022-11-20T11:35:03;20.10;;;17.93;;
803;SDS011;25687;49.976;8.240;2022-11-20T11:37:34;20.50;;;17.93;;
803;SDS011;25687;49.976;8.240;2022-11-20T11:40:03;20.97;;;18.50;;
803;SDS011;25687;49.976;8.240;2022-11-20T11:42:29;21.33;;;18.07;;
803;SDS011;25687;49.976;8.240;2022-11-20T11:44:56;21.40;;;18.30;;
803;SDS011;25687;49.976;8.240;2022-11-20T11:50:14;22.30;;;19.60;;
803;SDS011;25687;49.976;8.240;2022-11-20T11:55:47;19.27;;;16.73;;
803;SDS011;25687;49.976;8.240;2022-11-20T12:04:14;19.50;;;16.47;;
803;SDS011;25687;49.976;8.240;2022-11-20T12:06:47;22.00;;;16.20;;
803;SDS011;25687;49.976;8.240;2022-11-20T12:09:18;18.33;;;16.37;;
803;SDS011;25687;49.976;8.240;2022-11-20T12:14:53;19.13;;;14.70;;
803;SDS011;25687;49.976;8.240;2022-11-20T12:17:21;16.27;;;14.60;;
803;SDS011;25687;49.976;8.240;2022-11-20T12:19:46;17.37;;;15.27;;
803;SDS011;25687;49.976;8.240;2022-11-20T12:30:09;17.53;;;15.33;;
803;SDS011;25687;49.976;8.240;2022-11-20T12:35:32;19.40;;;16.30;;
803;SDS011;25687;49.976;8.240;2022-11-20T12:45:02;17.83;;;15.00;;
803;SDS011;25687;49.976;8.240;2022-11-20T12:50:15;19.77;;;15.73;;
803;SDS011;25687;49.976;8.240;2022-11-20T12:52:47;17.50;;;15.07;;
803;SDS011;25687;49.976;8.240;2022-11-20T13:01:08;16.60;;;13.97;;
803;SDS011;25687;49.976;8.240;2022-11-20T13:04:20;15.50;;;13.80;;
803;SDS011;25687;49.976;8.240;2022-11-20T13:06:53;14.93;;;13.20;;
803;SDS011;25687;49.976;8.240;2022-11-20T13:09:19;15.80;;;13.53;;
803;SDS011;25687;49.976;8.240;2022-11-20T13:14:37;16.63;;;13.47;;
803;SDS011;25687;49.976;8.240;2022-11-20T13:17:23;16.30;;;12.70;;
803;SDS011;25687;49.976;8.240;2022-11-20T13:19:56;13.83;;;12.33;;
803;SDS011;25687;49.976;8.240;2022-11-20T13:22:26;17.03;;;14.00;;
803;SDS011;25687;49.976;8.240;2022-11-20T13:24:52;15.80;;;13.47;;
803;SDS011;25687;49.976;8.240;2022-11-20T13:27:18;17.17;;;14.10;;
803;SDS011;25687;49.976;8.240;2022-11-20T13:29:47;19.57;;;15.43;;
803;SDS011;25687;49.976;8.240;2022-11-20T13:32:25;19.67;;;14.83;;
803;SDS011;25687;49.976;8.240;2022-11-20T13:35:10;21.17;;;16.97;;
803;SDS011;25687;49.976;8.240;2022-11-20T13:37:36;20.97;;;17.47;;
803;SDS011;25687;49.976;8.240;2022-11-20T13:42:36;24.07;;;19.07;;
803;SDS011;25687;49.976;8.240;2022-11-20T13:45:26;24.50;;;19.53;;
803;SDS011;25687;49.976;8.240;2022-11-20T13:47:57;26.03;;;20.57;;
803;SDS011;25687;49.976;8.240;2022-11-20T13:51:14;24.57;;;19.77;;
803;SDS011;25687;49.976;8.240;2022-11-20T13:53:29;24.23;;;18.03;;
803;SDS011;25687;49.976;8.240;2022-11-20T13:56:24;25.70;;;19.97;;
803;SDS011;25687;49.976;8.240;2022-11-20T14:01:56;26.23;;;18.87;;
803;SDS011;25687;49.976;8.240;2022-11-20T14:04:26;23.97;;;18.87;;
803;SDS011;25687;49.976;8.240;2022-11-20T14:06:56;22.23;;;17.83;;
803;SDS011;25687;49.976;8.240;2022-11-20T14:09:26;21.43;;;17.50;;
803;SDS011;25687;49.976;8.240;2022-11-20T14:11:56;23.40;;;18.27;;
803;SDS011;25687;49.976;8.240;2022-11-20T14:14:23;23.03;;;17.80;;
803;SDS011;25687;49.976;8.240;2022-11-20T14:16:51;26.97;;;19.47;;
803;SDS011;25687;49.976;8.240;2022-11-20T14:21:46;22.30;;;16.63;;
803;SDS011;25687;49.976;8.240;2022-11-20T14:24:12;19.17;;;16.47;;
803;SDS011;25687;49.976;8.240;2022-11-20T14:26:45;21.10;;;16.63;;
803;SDS011;25687;49.976;8.240;2022-11-20T14:29:14;20.23;;;16.13;;
803;SDS011;25687;49.976;8.240;2022-11-20T14:31:44;24.93;;;18.60;;
803;SDS011;25687;49.976;8.240;2022-11-20T14:34:17;26.67;;;20.00;;
803;SDS011;25687;49.976;8.240;2022-11-20T14:36:46;30.00;;;24.40;;
803;SDS011;25687;49.976;8.240;2022-11-20T14:39:19;21.87;;;17.77;;
803;SDS011;25687;49.976;8.240;2022-11-20T14:41:52;23.93;;;17.63;;
803;SDS011;25687;49.976;8.240;2022-11-20T14:44:23;24.17;;;19.97;;
803;SDS011;25687;49.976;8.240;2022-11-20T14:46:52;22.10;;;18.13;;
803;SDS011;25687;49.976;8.240;2022-11-20T14:49:20;23.53;;;19.30;;
803;SDS011;25687;49.976;8.240;2022-11-20T14:51:46;27.63;;;20.20;;
803;SDS011;25687;49.976;8.240;2022-11-20T14:56:41;24.87;;;20.87;;
803;SDS011;25687;49.976;8.240;2022-11-20T14:59:08;26.80;;;21.70;;
803;SDS011;25687;49.976;8.240;2022-11-20T15:01:34;28.70;;;21.70;;
803;SDS011;25687;49.976;8.240;2022-11-20T15:04:01;27.53;;;21.23;;
803;SDS011;25687;49.976;8.240;2022-11-20T15:06:35;25.93;;;19.80;;
803;SDS011;25687;49.976;8.240;2022-11-20T15:09:04;32.33;;;22.37;;
803;SDS011;25687;49.976;8.240;2022-11-20T15:11:38;27.60;;;21.50;;
803;SDS011;25687;49.976;8.240;2022-11-20T15:14:04;32.87;;;23.10;;
803;SDS011;25687;49.976;8.240;2022-11-20T15:16:31;32.77;;;24.57;;
803;SDS011;25687;49.976;8.240;2022-11-20T15:18:57;33.13;;;24.23;;
803;SDS011;25687;49.976;8.240;2022-11-20T15:21:23;31.40;;;23.30;;
803;SDS011;25687;49.976;8.240;2022-11-20T15:23:49;33.77;;;26.33;;
803;SDS011;25687;49.976;8.240;2022-11-20T15:26:18;32.00;;;25.23;;
803;SDS011;25687;49.976;8.240;2022-11-20T15:28:54;30.83;;;23.03;;
803;SDS011;25687;49.976;8.240;2022-11-20T15:31:21;31.50;;;25.17;;
803;SDS011;25687;49.976;8.240;2022-11-20T15:33:47;33.77;;;25.00;;
803;SDS011;25687;49.976;8.240;2022-11-20T15:36:14;37.73;;;25.13;;
803;SDS011;25687;49.976;8.240;2022-11-20T15:38:39;33.27;;;24.23;;
803;SDS011;25687;49.976;8.240;2022-11-20T15:41:05;38.23;;;25.87;;
803;SDS011;25687;49.976;8.240;2022-11-20T15:43:30;33.97;;;24.60;;
803;SDS011;25687;49.976;8.240;2022-11-20T15:45:58;33.30;;;24.13;;
803;SDS011;25687;49.976;8.240;2022-11-20T15:48:33;35.33;;;25.07;;
803;SDS011;25687;49.976;8.240;2022-11-20T15:51:04;34.23;;;24.73;;
803;SDS011;25687;49.976;8.240;2022-11-20T15:53:37;54.50;;;31.10;;
803;SDS011;25687;49.976;8.240;2022-11-20T15:56:06;34.87;;;23.77;;
803;SDS011;25687;49.976;8.240;2022-11-20T15:58:36;30.93;;;24.53;;
803;SDS011;25687;49.976;8.240;2022-11-20T16:01:01;31.03;;;22.70;;
803;SDS011;25687;49.976;8.240;2022-11-20T16:03:26;32.77;;;23.57;;
803;SDS011;25687;49.976;8.240;2022-11-20T16:05:52;33.73;;;23.77;;
803;SDS011;25687;49.976;8.240;2022-11-20T16:08:17;37.00;;;24.43;;
803;SDS011;25687;49.976;8.240;2022-11-20T16:10:43;33.67;;;24.20;;
803;SDS011;25687;49.976;8.240;2022-11-20T16:13:15;33.63;;;22.67;;
803;SDS011;25687;49.976;8.240;2022-11-20T16:16:04;31.93;;;23.67;;
803;SDS011;25687;49.976;8.240;2022-11-20T16:18:32;29.23;;;23.20;;
803;SDS011;25687;49.976;8.240;2022-11-20T16:20:58;32.30;;;22.83;;
803;SDS011;25687;49.976;8.240;2022-11-20T16:23:23;27.03;;;21.50;;
803;SDS011;25687;49.976;8.240;2022-11-20T16:25:49;34.70;;;21.43;;
803;SDS011;25687;49.976;8.240;2022-11-20T16:28:16;30.50;;;21.77;;
803;SDS011;25687;49.976;8.240;2022-11-20T16:30:41;29.20;;;22.30;;
803;SDS011;25687;49.976;8.240;2022-11-20T16:33:10;44.83;;;27.87;;